createdAt,value
2023-05-23T00:02:19.312Z,12.16
2023-05-23T00:05:05.454Z,12.24
2023-05-23T00:07:50.282Z,12.02
2023-05-23T00:10:35.377Z,12.22
2023-05-23T00:13:20.567Z,11.98
2023-05-23T00:16:09.607Z,12.16
2023-05-23T00:18:57.541Z,11.99
2023-05-23T00:21:44.299Z,12.16
2023-05-23T00:24:29.480Z,12.11
2023-05-23T00:27:14.503Z,12.06
2023-05-23T00:29:59.444Z,12.00
2023-05-23T00:32:44.330Z,12.03
2023-05-23T00:35:29.471Z,12.01
2023-05-23T00:38:14.888Z,11.94
2023-05-23T00:41:01.733Z,11.93
2023-05-23T00:43:46.982Z,11.89
2023-05-23T00:46:32.455Z,11.85
2023-05-23T00:49:20.214Z,11.82
2023-05-23T00:52:05.633Z,11.80
2023-05-23T00:54:50.673Z,11.68
2023-05-23T00:57:40.281Z,11.75
2023-05-23T01:00:26.030Z,11.74
2023-05-23T01:03:17.900Z,11.65
2023-05-23T01:06:02.987Z,11.61
2023-05-23T01:08:48.012Z,11.59
2023-05-23T01:11:43.676Z,11.57
2023-05-23T01:14:42.947Z,11.56
2023-05-23T01:17:58.418Z,11.57
2023-05-23T01:20:56.412Z,11.53
2023-05-23T01:23:56.035Z,11.50
2023-05-23T01:27:05.745Z,11.46
2023-05-23T01:29:54.524Z,11.37
2023-05-23T01:32:40.293Z,11.34
2023-05-23T01:35:27.413Z,11.32
2023-05-23T01:38:12.827Z,11.33
2023-05-23T01:40:58.313Z,11.31
2023-05-23T01:43:44.040Z,11.30
2023-05-23T01:46:29.881Z,11.27
2023-05-23T01:49:16.925Z,11.33
2023-05-23T01:52:02.905Z,11.30
2023-05-23T01:54:49.012Z,11.31
2023-05-23T01:57:35.647Z,11.31
2023-05-23T02:00:21.598Z,11.24
2023-05-23T02:03:07.086Z,11.18
2023-05-23T02:05:52.304Z,11.22
2023-05-23T02:08:37.277Z,11.04
2023-05-23T02:11:22.752Z,11.12
2023-05-23T02:14:07.660Z,11.08
2023-05-23T02:16:52.887Z,11.05
2023-05-23T02:19:38.383Z,11.06
2023-05-23T02:22:25.544Z,11.02
2023-05-23T02:25:10.621Z,10.86
2023-05-23T02:27:55.813Z,10.93
2023-05-23T02:30:40.702Z,10.78
2023-05-23T02:33:25.965Z,10.84
2023-05-23T02:36:10.994Z,10.84
2023-05-23T02:38:56.781Z,10.82
2023-05-23T02:41:41.560Z,10.85
2023-05-23T02:44:26.517Z,10.82
2023-05-23T02:47:11.699Z,10.81
2023-05-23T02:49:57.036Z,10.78
2023-05-23T02:52:42.421Z,10.57
2023-05-23T02:55:27.696Z,10.70
2023-05-23T02:58:12.859Z,10.67
2023-05-23T03:00:57.927Z,10.49
2023-05-23T03:03:43.190Z,10.63
2023-05-23T03:06:28.803Z,10.62
2023-05-23T03:09:16.962Z,10.55
2023-05-23T03:12:01.936Z,10.55
2023-05-23T03:14:47.134Z,10.54
2023-05-23T03:17:32.048Z,10.55
2023-05-23T03:20:16.938Z,10.51
2023-05-23T03:23:01.677Z,10.51
2023-05-23T03:25:46.637Z,10.47
2023-05-23T03:28:31.930Z,10.50
2023-05-23T03:31:17.405Z,10.51
2023-05-23T03:34:02.734Z,10.49
2023-05-23T03:36:48.032Z,10.48
2023-05-23T03:39:33.055Z,10.50
2023-05-23T03:42:18.483Z,10.42
2023-05-23T03:45:04.016Z,10.41
2023-05-23T03:47:48.852Z,10.26
2023-05-23T03:50:33.782Z,10.25
2023-05-23T03:53:18.706Z,10.38
2023-05-23T03:56:03.594Z,10.35
2023-05-23T03:58:48.730Z,10.29
2023-05-23T04:01:33.940Z,10.32
2023-05-23T04:04:20.977Z,10.20
2023-05-23T04:07:06.255Z,10.33
2023-05-23T04:09:51.324Z,10.09
2023-05-23T04:12:36.877Z,10.29
2023-05-23T04:15:21.946Z,10.17
2023-05-23T04:18:09.175Z,10.25
2023-05-23T04:20:54.758Z,10.16
2023-05-23T04:23:39.924Z,10.34
2023-05-23T04:26:25.355Z,10.36
2023-05-23T04:29:12.146Z,10.29
2023-05-23T04:32:00.875Z,10.38
2023-05-23T04:34:45.883Z,10.43
2023-05-23T04:37:33.082Z,10.43
2023-05-23T04:40:18.253Z,10.40
2023-05-23T04:43:03.946Z,10.37
2023-05-23T04:45:54.266Z,10.38
2023-05-23T04:48:39.229Z,10.49
2023-05-23T04:51:25.072Z,10.26
2023-05-23T04:54:10.083Z,10.39
2023-05-23T04:56:55.529Z,10.40
2023-05-23T04:59:40.502Z,10.54
2023-05-23T05:02:27.104Z,10.51
2023-05-23T05:05:12.244Z,10.63
2023-05-23T05:07:57.275Z,10.68
2023-05-23T05:10:42.847Z,10.68
2023-05-23T05:13:28.209Z,10.65
2023-05-23T05:16:13.560Z,10.67
2023-05-23T05:18:58.536Z,10.74
2023-05-23T05:21:43.924Z,10.74
2023-05-23T05:24:29.644Z,10.67
2023-05-23T05:27:14.837Z,10.90
2023-05-23T05:30:04.873Z,11.04
2023-05-23T05:32:50.075Z,11.08
2023-05-23T05:35:35.352Z,11.12
2023-05-23T05:38:20.591Z,11.17
2023-05-23T05:41:06.815Z,11.13
2023-05-23T05:43:53.975Z,11.32
2023-05-23T05:46:39.395Z,11.37
2023-05-23T05:49:24.493Z,11.42
2023-05-23T05:52:10.945Z,11.55
2023-05-23T05:54:57.684Z,11.59
2023-05-23T05:57:42.669Z,11.60
2023-05-23T06:00:27.949Z,11.73
2023-05-23T06:03:14.065Z,11.82
2023-05-23T06:05:59.855Z,11.88
2023-05-23T06:08:44.905Z,11.92
2023-05-23T06:11:30.166Z,12.00
2023-05-23T06:14:15.114Z,12.02
2023-05-23T06:17:00.778Z,11.99
2023-05-23T06:19:45.834Z,12.00
2023-05-23T06:22:30.996Z,11.94
2023-05-23T06:25:16.265Z,12.13
2023-05-23T06:28:01.395Z,12.19
2023-05-23T06:30:46.497Z,12.25
2023-05-23T06:33:32.506Z,12.32
2023-05-23T06:36:17.757Z,12.40
2023-05-23T06:39:03.236Z,12.24
2023-05-23T06:41:48.445Z,12.40
2023-05-23T06:44:33.580Z,12.43
2023-05-23T06:47:18.626Z,12.50
2023-05-23T06:50:04.267Z,12.63
2023-05-23T06:52:49.965Z,12.77
2023-05-23T06:55:35.053Z,12.87
2023-05-23T06:58:22.266Z,13.07
2023-05-23T07:01:07.308Z,13.15
2023-05-23T07:03:52.396Z,13.23
2023-05-23T07:06:37.617Z,13.21
2023-05-23T07:09:22.797Z,13.24
2023-05-23T07:12:07.866Z,13.43
2023-05-23T07:14:53.001Z,13.37
2023-05-23T07:17:38.098Z,13.25
2023-05-23T07:20:23.355Z,13.12
2023-05-23T07:23:08.741Z,13.33
2023-05-23T07:26:02.389Z,13.52
2023-05-23T07:28:48.519Z,13.80
2023-05-23T07:31:33.864Z,14.09
2023-05-23T07:34:19.075Z,14.12
2023-05-23T07:37:04.086Z,14.01
2023-05-23T07:39:49.136Z,14.41
2023-05-23T07:42:34.221Z,14.66
2023-05-23T07:45:19.541Z,14.61
2023-05-23T07:48:04.748Z,14.70
2023-05-23T07:50:50.087Z,14.56
2023-05-23T07:53:39.775Z,14.66
2023-05-23T07:56:24.714Z,14.84
2023-05-23T07:59:10.097Z,14.95
2023-05-23T08:01:55.598Z,14.67
2023-05-23T08:04:40.922Z,14.54
2023-05-23T08:07:25.805Z,14.49
2023-05-23T08:10:11.295Z,14.61
2023-05-23T08:12:56.527Z,14.84
2023-05-23T08:15:41.624Z,15.11
2023-05-23T08:18:26.786Z,15.20
2023-05-23T08:21:11.909Z,14.93
2023-05-23T08:23:56.948Z,14.93
2023-05-23T08:26:42.074Z,14.94
2023-05-23T08:29:28.167Z,14.93
2023-05-23T08:32:13.261Z,14.96
2023-05-23T08:34:58.593Z,15.10
2023-05-23T08:37:46.120Z,15.22
2023-05-23T08:40:32.807Z,15.33
2023-05-23T08:43:19.588Z,15.30
2023-05-23T08:46:04.944Z,15.61
2023-05-23T08:48:55.375Z,15.78
2023-05-23T08:51:43.204Z,15.70
2023-05-23T08:54:29.517Z,15.57
2023-05-23T08:57:14.487Z,15.66
2023-05-23T09:00:00.862Z,15.85
2023-05-23T09:02:46.888Z,15.86
2023-05-23T09:05:32.212Z,15.68
2023-05-23T09:08:19.189Z,15.74
2023-05-23T09:11:06.163Z,15.74
2023-05-23T09:13:51.430Z,15.75
2023-05-23T09:16:36.781Z,15.82
2023-05-23T09:19:22.232Z,15.89
2023-05-23T09:22:07.429Z,16.05
2023-05-23T09:24:53.278Z,16.06
2023-05-23T09:27:38.255Z,15.99
2023-05-23T09:30:23.236Z,16.13
2023-05-23T09:33:08.420Z,16.18
2023-05-23T09:35:54.056Z,16.31
2023-05-23T09:38:40.834Z,16.15
2023-05-23T09:41:26.477Z,16.23
2023-05-23T09:44:11.810Z,16.16
2023-05-23T09:46:56.979Z,16.26
2023-05-23T09:49:44.893Z,16.16
2023-05-23T09:52:39.053Z,16.00
2023-05-23T09:55:24.220Z,15.85
2023-05-23T09:58:09.344Z,16.03
2023-05-23T10:00:56.590Z,16.05
2023-05-23T10:03:51.902Z,16.15
2023-05-23T10:06:53.302Z,16.12
2023-05-23T10:09:40.058Z,16.02
2023-05-23T10:12:31.114Z,16.06
2023-05-23T10:15:18.578Z,16.00
2023-05-23T10:18:15.799Z,16.12
2023-05-23T10:21:11.573Z,16.14
2023-05-23T10:23:59.477Z,15.92
2023-05-23T10:26:45.861Z,16.14
2023-05-23T10:29:33.755Z,16.20
2023-05-23T10:32:19.345Z,16.35
2023-05-23T10:35:15.485Z,16.57
2023-05-23T10:38:15.757Z,17.05
2023-05-23T10:41:06.160Z,17.34
2023-05-23T10:43:50.923Z,17.34
2023-05-23T10:47:03.901Z,17.43
2023-05-23T10:49:54.417Z,17.86
2023-05-23T10:52:41.457Z,17.74
2023-05-23T10:55:28.008Z,17.44
2023-05-23T10:58:20.470Z,17.06
2023-05-23T11:01:07.669Z,17.39
2023-05-23T11:03:55.350Z,17.84
2023-05-23T11:06:45.182Z,17.98
2023-05-23T11:09:30.738Z,18.28
2023-05-23T11:12:15.608Z,18.06
2023-05-23T11:15:00.692Z,18.26
2023-05-23T11:17:56.688Z,18.41
2023-05-23T11:20:45.124Z,18.48
2023-05-23T11:23:42.310Z,18.28
2023-05-23T11:26:32.178Z,18.74
2023-05-23T11:29:17.702Z,18.92
2023-05-23T11:32:16.003Z,19.20
2023-05-23T11:35:04.594Z,19.34
2023-05-23T11:37:49.600Z,19.41
2023-05-23T11:40:39.941Z,19.44
2023-05-23T11:43:26.077Z,19.87
2023-05-23T11:46:11.160Z,19.90
2023-05-23T11:48:56.427Z,19.74
2023-05-23T11:51:41.136Z,19.69
2023-05-23T11:54:27.410Z,20.18
2023-05-23T11:57:14.056Z,19.96
2023-05-23T11:59:59.553Z,19.61
2023-05-23T12:02:45.920Z,19.36
2023-05-23T12:05:31.344Z,19.03
2023-05-23T12:08:16.271Z,19.13
2023-05-23T12:11:01.931Z,19.16
2023-05-23T12:13:47.130Z,19.27
2023-05-23T12:16:36.482Z,19.63
2023-05-23T12:19:22.771Z,20.53
2023-05-23T12:22:08.740Z,20.56
2023-05-23T12:24:55.723Z,20.96
2023-05-23T12:27:44.298Z,21.10
2023-05-23T12:30:29.434Z,20.74
2023-05-23T12:33:14.500Z,20.31
2023-05-23T12:35:59.810Z,20.27
2023-05-23T12:38:45.638Z,20.18
2023-05-23T12:41:32.536Z,20.07
2023-05-23T12:44:17.639Z,19.93
2023-05-23T12:47:04.142Z,19.98
2023-05-23T12:49:49.876Z,20.04
2023-05-23T12:52:36.595Z,21.05
2023-05-23T12:55:21.795Z,21.00
2023-05-23T12:58:07.181Z,20.75
2023-05-23T13:00:52.373Z,21.14
2023-05-23T13:03:37.711Z,21.15
2023-05-23T13:06:22.827Z,20.87
2023-05-23T13:09:07.985Z,20.65
2023-05-23T13:11:53.160Z,20.40
2023-05-23T13:14:38.457Z,20.35
2023-05-23T13:17:23.696Z,20.81
2023-05-23T13:20:11.132Z,21.56
2023-05-23T13:22:59.454Z,21.34
2023-05-23T13:25:44.582Z,20.42
2023-05-23T13:28:29.902Z,20.27
2023-05-23T13:31:15.100Z,21.03
2023-05-23T13:34:00.489Z,21.66
2023-05-23T13:36:45.734Z,21.88
2023-05-23T13:39:30.621Z,22.54
2023-05-23T13:42:15.637Z,22.89
2023-05-23T13:45:00.962Z,22.56
2023-05-23T13:47:46.684Z,22.45
2023-05-23T13:50:32.084Z,22.32
2023-05-23T13:53:17.573Z,21.85
2023-05-23T13:56:03.356Z,22.63
2023-05-23T13:58:48.445Z,23.25
2023-05-23T14:01:33.827Z,23.49
2023-05-23T14:04:19.819Z,22.57
2023-05-23T14:07:05.033Z,22.34
2023-05-23T14:09:50.753Z,22.21
2023-05-23T14:12:35.728Z,21.90
2023-05-23T14:15:20.803Z,21.44
2023-05-23T14:18:06.132Z,21.41
2023-05-23T14:20:51.446Z,21.44
2023-05-23T14:23:36.460Z,21.29
2023-05-23T14:26:22.401Z,21.24
2023-05-23T14:29:07.799Z,21.17
2023-05-23T14:31:52.983Z,21.56
2023-05-23T14:34:38.325Z,21.57
2023-05-23T14:37:23.547Z,21.28
2023-05-23T14:40:10.311Z,21.27
2023-05-23T14:42:55.412Z,21.10
2023-05-23T14:45:41.274Z,21.11
2023-05-23T14:48:26.953Z,21.12
2023-05-23T14:51:15.867Z,21.11
2023-05-23T14:54:09.512Z,21.93
2023-05-23T14:56:54.834Z,22.42
2023-05-23T14:59:39.836Z,22.75
2023-05-23T15:02:25.235Z,22.55
2023-05-23T15:05:10.550Z,21.87
2023-05-23T15:07:56.448Z,21.94
2023-05-23T15:10:44.717Z,22.76
2023-05-23T15:13:29.667Z,22.76
2023-05-23T15:16:16.661Z,22.89
2023-05-23T15:19:02.124Z,23.11
2023-05-23T15:21:51.103Z,23.15
2023-05-23T15:24:38.735Z,23.10
2023-05-23T15:27:26.021Z,22.99
2023-05-23T15:30:11.483Z,22.68
2023-05-23T15:32:58.543Z,22.58
2023-05-23T15:35:45.723Z,22.36
2023-05-23T15:38:30.814Z,22.29
2023-05-23T15:41:16.642Z,21.71
2023-05-23T15:44:01.799Z,21.66
2023-05-23T15:46:51.478Z,21.93
2023-05-23T15:49:36.860Z,22.39
2023-05-23T15:52:21.779Z,22.72
2023-05-23T15:55:07.707Z,22.69
2023-05-23T15:57:53.011Z,22.49
2023-05-23T16:00:38.159Z,22.50
2023-05-23T16:03:23.770Z,22.36
2023-05-23T16:06:09.136Z,22.02
2023-05-23T16:08:54.868Z,21.99
2023-05-23T16:11:40.253Z,22.13
2023-05-23T16:14:25.670Z,21.96
2023-05-23T16:17:10.947Z,21.67
2023-05-23T16:19:56.013Z,21.53
2023-05-23T16:22:41.551Z,21.44
2023-05-23T16:25:26.735Z,21.42
2023-05-23T16:28:11.890Z,21.42
2023-05-23T16:30:56.965Z,21.28
2023-05-23T16:33:42.130Z,21.24
2023-05-23T16:36:27.271Z,21.19
2023-05-23T16:39:12.651Z,21.04
2023-05-23T16:42:00.270Z,20.91
2023-05-23T16:44:45.912Z,20.95
2023-05-23T16:47:31.155Z,20.86
2023-05-23T16:50:16.687Z,20.80
2023-05-23T16:53:02.149Z,20.58
2023-05-23T16:55:47.451Z,20.33
2023-05-23T16:58:36.031Z,20.36
2023-05-23T17:01:21.473Z,20.08
2023-05-23T17:04:06.653Z,19.94
2023-05-23T17:06:51.746Z,19.80
2023-05-23T17:09:37.070Z,19.83
2023-05-23T17:12:22.373Z,19.93
2023-05-23T17:15:08.060Z,19.98
2023-05-23T17:17:53.190Z,20.00
2023-05-23T17:20:38.583Z,19.93
2023-05-23T17:23:23.947Z,19.54
2023-05-23T17:26:10.115Z,19.50
2023-05-23T17:28:54.929Z,19.37
2023-05-23T17:31:40.094Z,19.27
2023-05-23T17:34:25.146Z,19.23
2023-05-23T17:37:11.704Z,19.00
2023-05-23T17:39:57.824Z,19.13
2023-05-23T17:42:43.486Z,19.09
2023-05-23T17:45:28.715Z,19.04
2023-05-23T17:48:15.378Z,18.84
2023-05-23T17:51:00.641Z,18.83
2023-05-23T17:53:45.873Z,18.57
2023-05-23T17:56:31.047Z,18.32
2023-05-23T17:59:16.473Z,18.22
2023-05-23T18:02:01.568Z,18.13
2023-05-23T18:04:46.614Z,18.06
2023-05-23T18:07:32.325Z,17.83
2023-05-23T18:10:17.671Z,17.63
2023-05-23T18:13:02.967Z,17.51
2023-05-23T18:15:47.820Z,17.38
2023-05-23T18:18:33.502Z,17.24
2023-05-23T18:21:19.067Z,17.13
2023-05-23T18:24:04.430Z,17.18
2023-05-23T18:26:49.640Z,17.04
2023-05-23T18:29:35.719Z,16.95
2023-05-23T18:32:21.433Z,16.86
2023-05-23T18:35:07.724Z,16.76
2023-05-23T18:37:53.894Z,16.58
2023-05-23T18:40:39.576Z,16.51
2023-05-23T18:43:24.605Z,16.36
2023-05-23T18:46:09.813Z,16.18
2023-05-23T18:48:57.223Z,16.12
2023-05-23T18:51:43.164Z,16.10
2023-05-23T18:54:28.183Z,16.01
2023-05-23T18:57:13.181Z,15.99
2023-05-23T18:59:58.022Z,15.87
2023-05-23T19:02:45.245Z,15.84
2023-05-23T19:05:30.305Z,15.73
2023-05-23T19:08:15.271Z,15.63
2023-05-23T19:11:00.478Z,15.46
2023-05-23T19:13:45.724Z,15.42
2023-05-23T19:16:31.499Z,15.37
2023-05-23T19:19:16.890Z,15.21
2023-05-23T19:22:02.486Z,15.17
2023-05-23T19:24:47.677Z,15.19
2023-05-23T19:27:32.993Z,14.87
2023-05-23T19:30:18.579Z,15.01
2023-05-23T19:33:04.547Z,14.97
2023-05-23T19:35:50.105Z,14.89
2023-05-23T19:38:35.095Z,14.86
2023-05-23T19:41:20.421Z,14.72
2023-05-23T19:44:06.058Z,14.73
2023-05-23T19:46:51.417Z,14.70
2023-05-23T19:49:36.656Z,14.44
2023-05-23T19:52:21.622Z,14.47
2023-05-23T19:55:07.101Z,14.32
2023-05-23T19:57:52.485Z,14.31
2023-05-23T20:00:37.814Z,14.26
2023-05-23T20:03:22.839Z,14.24
2023-05-23T20:06:08.330Z,14.21
2023-05-23T20:08:53.792Z,14.12
2023-05-23T20:11:38.631Z,14.04
2023-05-23T20:14:23.799Z,13.99
2023-05-23T20:17:08.783Z,13.97
2023-05-23T20:19:53.839Z,13.93
2023-05-23T20:22:38.934Z,13.85
2023-05-23T20:25:23.876Z,13.85
2023-05-23T20:28:09.215Z,13.85
2023-05-23T20:30:54.102Z,13.78
2023-05-23T20:33:38.978Z,13.69
2023-05-23T20:36:24.966Z,13.60
2023-05-23T20:39:10.344Z,13.57
2023-05-23T20:41:55.736Z,13.54
2023-05-23T20:44:41.334Z,13.38
2023-05-23T20:47:26.857Z,13.48
2023-05-23T20:50:12.765Z,13.28
2023-05-23T20:52:58.949Z,13.39
2023-05-23T20:55:44.933Z,13.37
2023-05-23T20:58:29.813Z,13.30
2023-05-23T21:01:15.081Z,13.25
2023-05-23T21:04:00.244Z,13.08
2023-05-23T21:06:45.196Z,13.13
2023-05-23T21:09:30.303Z,13.09
2023-05-23T21:12:15.911Z,12.97
2023-05-23T21:15:00.959Z,13.04
2023-05-23T21:17:46.257Z,13.00
2023-05-23T21:20:31.630Z,12.90
2023-05-23T21:23:16.641Z,12.85
2023-05-23T21:26:01.987Z,12.66
2023-05-23T21:28:47.041Z,12.69
2023-05-23T21:31:41.054Z,12.60
2023-05-23T21:34:27.384Z,12.44
2023-05-23T21:37:12.505Z,12.32
2023-05-23T21:39:57.394Z,12.32
2023-05-23T21:42:42.519Z,12.23
2023-05-23T21:45:27.445Z,12.04
2023-05-23T21:48:12.339Z,11.92
2023-05-23T21:50:57.282Z,11.94
2023-05-23T21:53:42.276Z,11.70
2023-05-23T21:56:27.952Z,11.65
2023-05-23T21:59:12.788Z,11.71
2023-05-23T22:01:57.928Z,11.65
2023-05-23T22:04:43.158Z,11.69
2023-05-23T22:07:28.292Z,11.60
2023-05-23T22:10:13.293Z,11.48
2023-05-23T22:12:58.255Z,11.45
2023-05-23T22:15:43.524Z,11.37
2023-05-23T22:18:34.552Z,11.33
2023-05-23T22:21:28.813Z,11.26
2023-05-23T22:24:14.000Z,11.16
2023-05-23T22:27:00.689Z,11.10
2023-05-23T22:29:45.829Z,11.11
2023-05-23T22:32:31.131Z,10.99
2023-05-23T22:35:16.105Z,11.08
2023-05-23T22:38:01.549Z,11.06
2023-05-23T22:40:46.815Z,11.00
2023-05-23T22:43:32.250Z,10.93
2023-05-23T22:46:17.561Z,10.85
2023-05-23T22:49:03.564Z,10.80
2023-05-23T22:51:48.828Z,10.77
2023-05-23T22:54:34.033Z,10.74
2023-05-23T22:57:19.551Z,10.57
2023-05-23T23:00:05.706Z,10.59
2023-05-23T23:02:50.854Z,10.54
2023-05-23T23:05:35.915Z,10.46
2023-05-23T23:08:24.369Z,10.28
2023-05-23T23:11:09.754Z,10.37
2023-05-23T23:13:54.624Z,10.27
2023-05-23T23:16:39.767Z,10.27
2023-05-23T23:19:25.001Z,10.23
2023-05-23T23:22:09.994Z,10.05
2023-05-23T23:24:55.737Z,10.09
2023-05-23T23:27:40.708Z,9.95
2023-05-23T23:30:25.667Z,10.03
2023-05-23T23:33:11.018Z,10.03
2023-05-23T23:35:56.465Z,9.99
2023-05-23T23:38:41.482Z,9.68
2023-05-23T23:41:26.887Z,9.89
2023-05-23T23:44:12.273Z,9.92
2023-05-23T23:46:57.054Z,9.77
2023-05-23T23:49:42.518Z,9.62
2023-05-23T23:52:28.066Z,9.82
2023-05-23T23:55:13.239Z,9.64
2023-05-23T23:57:58.085Z,9.61
